CheckWX is a tool to help pilots better visualize weather data.  It is not intended as a substitute for an official pre-flight weather briefing.

21:37:24 UTC

I63 METAR
Mount Sterling Municipal Airport
Mount Sterling, Illinois, USA
Current

22 mins ago

KI63 202115Z AUTO 25012G19KT 10SM OVC017 02/00 A2977 RMK AO2 T00201001
Observed
Feb-20 @ 21:15 UTC
Wind
  • 250° at 12 KTS
  • Gusting to 19 KTS
Visibility
16,093 meters
Flight Rules
MVFR
Cloud Levels
  • Overcast at 1,700' AGL
Temperature
C / 36°F
Dewpoint
-0°C / 32°F
Humidity
87%
Altimeter
29.77" Hg
Pressure
1008.12 hPa
Previous

42 mins ago

KI63 202055Z AUTO 24011G21KT 10SM BKN013 OVC020 02/00 A2976 RMK AO2 T00220002
Observed
Feb-20 @ 20:55 UTC
Wind
  • 240° at 11 KTS
  • Gusting to 21 KTS
Visibility
16,093 meters
Flight Rules
MVFR
Cloud Levels
  • Broken at 1,300' AGL
  • Overcast at 2,000' AGL
Temperature
C / 36°F
Dewpoint
C / 32°F
Humidity
87%
Altimeter
29.76" Hg
Pressure
1007.82 hPa
Previous

1 hour ago

KI63 202035Z AUTO 22012G16KT 10SM OVC011 02/01 A2976 RMK AO2 T00220005
Observed
Feb-20 @ 20:35 UTC
Wind
  • 220° at 12 KTS
  • Gusting to 16 KTS
Visibility
16,093 meters
Flight Rules
MVFR
Cloud Levels
  • Overcast at 1,100' AGL
Temperature
C / 36°F
Dewpoint
C / 34°F
Humidity
93%
Altimeter
29.76" Hg
Pressure
1007.82 hPa